createdAt,value
2023-02-05T00:01:57.046Z,1.01
2023-02-05T00:04:24.545Z,1.39
2023-02-05T00:06:51.695Z,1.13
2023-02-05T00:09:18.851Z,1.63
2023-02-05T00:11:46.258Z,1.54
2023-02-05T00:14:13.409Z,1.26
2023-02-05T00:16:40.597Z,1.01
2023-02-05T00:19:08.058Z,1.92
2023-02-05T00:21:35.257Z,1.43
2023-02-05T00:24:02.397Z,1.23
2023-02-05T00:26:29.827Z,1.82
2023-02-05T00:28:57.010Z,1.06
2023-02-05T00:31:24.397Z,0.72
2023-02-05T00:33:51.999Z,2.01
2023-02-05T00:36:19.841Z,1.67
2023-02-05T00:38:47.203Z,1.00
2023-02-05T00:41:14.854Z,1.55
2023-02-05T00:43:42.572Z,1.35
2023-02-05T00:46:10.500Z,1.58
2023-02-05T00:48:38.113Z,1.89
2023-02-05T00:51:05.359Z,1.98
2023-02-05T00:53:32.848Z,2.36
2023-02-05T00:56:00.290Z,2.29
2023-02-05T00:58:27.607Z,1.61
2023-02-05T01:00:54.747Z,1.72
2023-02-05T01:03:22.199Z,2.22
2023-02-05T01:05:49.357Z,1.67
2023-02-05T01:08:16.628Z,0.96
2023-02-05T01:10:45.489Z,1.60
2023-02-05T01:13:12.797Z,1.46
2023-02-05T01:15:40.134Z,1.58
2023-02-05T01:18:07.630Z,2.49
2023-02-05T01:20:38.556Z,3.17
2023-02-05T01:23:05.805Z,2.20
2023-02-05T01:25:33.509Z,2.39
2023-02-05T01:28:00.877Z,2.05
2023-02-05T01:30:28.100Z,2.40
2023-02-05T01:32:55.529Z,1.83
2023-02-05T01:35:22.659Z,2.22
2023-02-05T01:37:49.797Z,2.46
2023-02-05T01:40:17.366Z,1.69
2023-02-05T01:42:44.676Z,1.79
2023-02-05T01:45:29.681Z,2.53
2023-02-05T01:48:00.970Z,2.71
2023-02-05T01:50:29.380Z,3.11
2023-02-05T01:52:57.438Z,3.35
2023-02-05T01:55:24.601Z,3.26
2023-02-05T01:57:51.763Z,2.67
2023-02-05T02:00:19.302Z,2.93
2023-02-05T02:02:50.117Z,2.69
2023-02-05T02:05:17.802Z,3.31
2023-02-05T02:07:45.511Z,3.51
2023-02-05T02:10:13.830Z,4.35
2023-02-05T02:12:41.488Z,3.80
2023-02-05T02:15:16.523Z,3.48
2023-02-05T02:17:44.920Z,4.03
2023-02-05T02:20:19.257Z,3.98
2023-02-05T02:22:55.493Z,3.81
2023-02-05T02:25:41.949Z,4.18
2023-02-05T02:28:11.900Z,3.62
2023-02-05T02:30:48.299Z,4.24
2023-02-05T02:33:20.341Z,4.37
2023-02-05T02:35:59.366Z,4.25
2023-02-05T02:38:28.366Z,4.95
2023-02-05T02:41:08.359Z,4.87
2023-02-05T02:43:52.334Z,4.90
2023-02-05T02:46:30.626Z,4.51
2023-02-05T02:48:58.479Z,4.58
2023-02-05T02:51:25.952Z,3.49
2023-02-05T02:53:55.269Z,3.61
2023-02-05T02:56:22.748Z,2.82
2023-02-05T02:58:51.004Z,2.93
2023-02-05T03:01:19.596Z,3.22
2023-02-05T03:03:51.379Z,3.77
2023-02-05T03:06:18.810Z,3.61
2023-02-05T03:08:52.396Z,3.74
2023-02-05T03:11:19.864Z,4.00
2023-02-05T03:13:47.105Z,3.81
2023-02-05T03:16:14.833Z,4.36
2023-02-05T03:18:42.311Z,4.59
2023-02-05T03:21:10.694Z,4.68
2023-02-05T03:23:39.083Z,5.11
2023-02-05T03:26:19.023Z,5.27
2023-02-05T03:28:46.290Z,5.43
2023-02-05T03:31:15.814Z,5.34
2023-02-05T03:34:01.854Z,5.33
2023-02-05T03:36:29.530Z,4.93
2023-02-05T03:39:02.711Z,4.48
2023-02-05T03:41:50.809Z,4.38
2023-02-05T03:44:40.094Z,4.70
2023-02-05T03:47:27.120Z,4.78
2023-02-05T03:50:17.603Z,5.08
2023-02-05T03:52:50.644Z,5.46
2023-02-05T03:55:21.274Z,5.45
2023-02-05T03:57:50.927Z,5.32
2023-02-05T04:00:18.383Z,5.19
2023-02-05T04:02:45.985Z,5.39
2023-02-05T04:05:13.516Z,5.26
2023-02-05T04:07:41.210Z,4.94
2023-02-05T04:10:09.243Z,4.78
2023-02-05T04:12:37.638Z,5.28
2023-02-05T04:15:05.540Z,5.61
2023-02-05T04:17:33.006Z,6.18
2023-02-05T04:20:00.315Z,6.07
2023-02-05T04:22:27.736Z,6.14
2023-02-05T04:24:55.201Z,5.82
2023-02-05T04:27:22.468Z,5.78
2023-02-05T04:29:50.040Z,6.22
2023-02-05T04:32:17.525Z,6.47
2023-02-05T04:34:44.691Z,5.58
2023-02-05T04:37:12.247Z,5.25
2023-02-05T04:39:39.700Z,4.18
2023-02-05T04:42:06.856Z,5.21
2023-02-05T04:44:34.017Z,4.56
2023-02-05T04:47:01.435Z,5.06
2023-02-05T04:49:28.678Z,5.21
2023-02-05T04:51:55.843Z,4.45
2023-02-05T04:54:23.307Z,5.12
2023-02-05T04:56:50.558Z,4.60
2023-02-05T04:59:17.934Z,5.14
2023-02-05T05:01:45.473Z,3.69
2023-02-05T05:04:12.606Z,3.71
2023-02-05T05:06:39.758Z,3.25
2023-02-05T05:09:07.197Z,4.00
2023-02-05T05:11:34.343Z,3.96
2023-02-05T05:14:01.523Z,3.96
2023-02-05T05:16:28.972Z,4.36
2023-02-05T05:18:56.136Z,3.66
2023-02-05T05:21:23.280Z,4.26
2023-02-05T05:23:50.722Z,3.74
2023-02-05T05:26:17.879Z,3.88
2023-02-05T05:28:45.018Z,3.63
2023-02-05T05:31:16.869Z,4.44
2023-02-05T05:33:44.180Z,4.78
2023-02-05T05:36:11.486Z,5.42
2023-02-05T05:38:38.973Z,5.57
2023-02-05T05:41:24.626Z,5.52
2023-02-05T05:43:52.775Z,5.72
2023-02-05T05:46:24.357Z,5.60
2023-02-05T05:48:52.819Z,5.67
2023-02-05T05:51:20.369Z,5.90
2023-02-05T05:53:47.579Z,6.15
2023-02-05T05:56:15.475Z,5.78
2023-02-05T05:58:42.971Z,6.11
2023-02-05T06:01:10.518Z,5.97
2023-02-05T06:03:38.055Z,5.94
2023-02-05T06:06:05.828Z,6.16
2023-02-05T06:08:33.118Z,6.29
2023-02-05T06:11:00.544Z,6.11
2023-02-05T06:13:27.709Z,6.34
2023-02-05T06:15:54.942Z,6.61
2023-02-05T06:18:23.791Z,6.53
2023-02-05T06:20:51.159Z,6.63
2023-02-05T06:23:18.314Z,6.64
2023-02-05T06:25:45.733Z,6.42
2023-02-05T06:28:12.916Z,6.33
2023-02-05T06:30:40.187Z,6.11
2023-02-05T06:33:07.652Z,6.52
2023-02-05T06:35:35.149Z,6.83
2023-02-05T06:38:02.421Z,6.93
2023-02-05T06:40:29.884Z,6.83
2023-02-05T06:42:57.029Z,5.83
2023-02-05T06:45:24.166Z,5.66
2023-02-05T06:47:55.997Z,5.87
2023-02-05T06:50:23.447Z,5.85
2023-02-05T06:52:51.305Z,5.64
2023-02-05T06:55:18.851Z,5.84
2023-02-05T06:57:46.000Z,5.54
2023-02-05T07:00:13.956Z,5.78
2023-02-05T07:02:41.396Z,5.46
2023-02-05T07:05:08.908Z,5.13
2023-02-05T07:07:36.041Z,5.45
2023-02-05T07:10:04.328Z,5.91
2023-02-05T07:12:31.775Z,6.12
2023-02-05T07:14:58.950Z,6.16
2023-02-05T07:17:26.494Z,5.30
2023-02-05T07:19:55.129Z,5.34
2023-02-05T07:22:22.315Z,5.53
2023-02-05T07:24:49.734Z,5.82
2023-02-05T07:27:16.911Z,6.34
2023-02-05T07:29:44.051Z,6.29
2023-02-05T07:32:11.518Z,6.53
2023-02-05T07:34:38.730Z,6.34
2023-02-05T07:37:05.877Z,6.22
2023-02-05T07:39:33.509Z,6.15
2023-02-05T07:42:00.897Z,5.90
2023-02-05T07:44:28.569Z,5.90
2023-02-05T07:46:56.292Z,5.68
2023-02-05T07:49:23.600Z,6.15
2023-02-05T07:51:51.798Z,6.13
2023-02-05T07:54:19.445Z,5.93
2023-02-05T07:56:46.632Z,5.53
2023-02-05T07:59:13.748Z,5.71
2023-02-05T08:01:41.162Z,5.59
2023-02-05T08:04:08.617Z,4.67
2023-02-05T08:06:35.828Z,4.54
2023-02-05T08:09:03.261Z,4.19
2023-02-05T08:11:32.549Z,4.61
2023-02-05T08:14:00.702Z,4.43
2023-02-05T08:16:27.893Z,4.68
2023-02-05T08:18:55.357Z,4.58
2023-02-05T08:21:22.630Z,4.93
2023-02-05T08:23:49.823Z,4.45
2023-02-05T08:26:17.643Z,4.88
2023-02-05T08:28:44.870Z,4.64
2023-02-05T08:31:12.878Z,3.87
2023-02-05T08:33:40.354Z,3.70
2023-02-05T08:36:07.751Z,3.11
2023-02-05T08:38:35.030Z,3.85
2023-02-05T08:41:12.713Z,4.08
2023-02-05T08:43:41.197Z,3.80
2023-02-05T08:46:09.148Z,3.94
2023-02-05T08:48:36.362Z,3.97
2023-02-05T08:51:03.938Z,4.28
2023-02-05T08:53:31.902Z,4.83
2023-02-05T08:55:59.875Z,4.33
2023-02-05T08:58:27.478Z,4.88
2023-02-05T09:01:02.566Z,4.79
2023-02-05T09:03:30.634Z,3.58
2023-02-05T09:05:58.495Z,4.13
2023-02-05T09:08:26.198Z,4.48
2023-02-05T09:10:53.385Z,4.18
2023-02-05T09:13:20.837Z,3.94
2023-02-05T09:15:48.661Z,4.67
2023-02-05T09:18:15.930Z,4.93
2023-02-05T09:20:44.631Z,4.41
2023-02-05T09:23:12.280Z,3.41
2023-02-05T09:25:58.303Z,4.07
2023-02-05T09:28:25.717Z,3.85
2023-02-05T09:30:52.968Z,4.72
2023-02-05T09:33:20.297Z,4.82
2023-02-05T09:35:47.704Z,5.96
2023-02-05T09:38:15.312Z,5.71
2023-02-05T09:40:56.853Z,5.88
2023-02-05T09:43:27.561Z,5.36
2023-02-05T09:45:59.502Z,6.01
2023-02-05T09:48:49.643Z,5.04
2023-02-05T09:51:18.862Z,4.75
2023-02-05T09:53:48.012Z,5.02
2023-02-05T09:56:15.177Z,5.25
2023-02-05T09:58:43.672Z,5.67
2023-02-05T10:01:14.232Z,4.33
2023-02-05T10:03:47.149Z,5.16
2023-02-05T10:06:36.369Z,5.83
2023-02-05T10:09:09.613Z,4.97
2023-02-05T10:11:40.658Z,4.81
2023-02-05T10:14:27.199Z,4.14
2023-02-05T10:17:06.697Z,5.32
2023-02-05T10:19:43.447Z,5.80
2023-02-05T10:22:15.096Z,5.34
2023-02-05T10:24:49.708Z,6.38
2023-02-05T10:27:21.695Z,6.61
2023-02-05T10:29:55.172Z,6.34
2023-02-05T10:32:25.331Z,6.47
2023-02-05T10:34:54.077Z,6.41
2023-02-05T10:37:21.911Z,6.98
2023-02-05T10:39:49.686Z,6.52
2023-02-05T10:42:28.421Z,6.96
2023-02-05T10:45:09.101Z,6.76
2023-02-05T10:47:39.823Z,6.81
2023-02-05T10:50:07.929Z,7.26
2023-02-05T10:52:35.142Z,6.98
2023-02-05T10:55:02.565Z,6.35
2023-02-05T10:57:30.471Z,7.08
2023-02-05T11:00:17.309Z,7.15
2023-02-05T11:02:46.586Z,6.98
2023-02-05T11:05:19.738Z,6.63
2023-02-05T11:07:48.038Z,7.05
2023-02-05T11:10:18.202Z,7.21
2023-02-05T11:12:46.304Z,6.46
2023-02-05T11:15:21.715Z,7.49
2023-02-05T11:17:52.929Z,7.11
2023-02-05T11:20:20.655Z,7.89
2023-02-05T11:22:47.860Z,7.27
2023-02-05T11:25:17.759Z,6.83
2023-02-05T11:27:57.759Z,7.54
2023-02-05T11:30:51.923Z,8.19
2023-02-05T11:33:21.749Z,8.62
2023-02-05T11:35:49.818Z,6.83
2023-02-05T11:38:30.131Z,6.53
2023-02-05T11:40:58.610Z,5.77
2023-02-05T11:43:49.090Z,5.29
2023-02-05T11:46:18.072Z,5.50
2023-02-05T11:48:56.492Z,5.72
2023-02-05T11:51:36.416Z,5.15
2023-02-05T11:54:04.432Z,4.74
2023-02-05T11:56:31.906Z,5.29
2023-02-05T11:59:00.624Z,4.99
2023-02-05T12:01:32.689Z,4.47
2023-02-05T12:04:03.463Z,4.56
2023-02-05T12:06:43.074Z,5.23
2023-02-05T12:09:14.831Z,5.16
2023-02-05T12:12:18.562Z,5.94
2023-02-05T12:15:06.437Z,5.62
2023-02-05T12:17:41.558Z,5.65
2023-02-05T12:20:35.936Z,6.18
2023-02-05T12:23:22.372Z,5.20
2023-02-05T12:25:49.863Z,6.03
2023-02-05T12:28:20.582Z,4.58
2023-02-05T12:31:02.715Z,5.26
2023-02-05T12:33:31.770Z,4.49
2023-02-05T12:36:12.008Z,5.00
2023-02-05T12:38:48.736Z,5.69
2023-02-05T12:41:16.222Z,5.81
2023-02-05T12:43:45.839Z,5.17
2023-02-05T12:46:13.573Z,5.75
2023-02-05T12:48:42.181Z,5.74
2023-02-05T12:51:15.781Z,5.23
2023-02-05T12:53:55.274Z,4.77
2023-02-05T12:56:28.670Z,5.19
2023-02-05T12:58:57.550Z,4.65
2023-02-05T13:01:30.292Z,4.54
2023-02-05T13:04:02.385Z,5.09
2023-02-05T13:06:34.455Z,5.87
2023-02-05T13:09:07.004Z,4.77
2023-02-05T13:11:38.001Z,4.79
2023-02-05T13:14:08.693Z,4.61
2023-02-05T13:16:37.962Z,5.33
2023-02-05T13:19:29.633Z,5.61
2023-02-05T13:22:16.965Z,5.59
2023-02-05T13:25:11.006Z,5.76
2023-02-05T13:27:58.440Z,5.74
2023-02-05T13:30:34.758Z,5.58
2023-02-05T13:33:04.355Z,6.09
2023-02-05T13:35:33.293Z,5.74
2023-02-05T13:38:11.022Z,5.70
2023-02-05T13:40:58.118Z,5.72
2023-02-05T13:43:43.727Z,6.23
2023-02-05T13:46:11.571Z,6.70
2023-02-05T13:48:45.152Z,6.21
2023-02-05T13:51:17.752Z,5.86
2023-02-05T13:53:48.169Z,5.92
2023-02-05T13:56:42.929Z,5.69
2023-02-05T13:59:19.209Z,5.88
2023-02-05T14:01:58.314Z,5.24
2023-02-05T14:04:28.143Z,4.36
2023-02-05T14:07:00.947Z,4.59
2023-02-05T14:09:29.105Z,5.91
2023-02-05T14:11:59.646Z,5.01
2023-02-05T14:14:38.423Z,5.23
2023-02-05T14:17:25.330Z,6.41
2023-02-05T14:19:56.994Z,5.52
2023-02-05T14:22:34.880Z,5.21
2023-02-05T14:25:03.151Z,4.82
2023-02-05T14:27:38.320Z,5.49
2023-02-05T14:30:39.134Z,5.72
2023-02-05T14:33:35.067Z,6.16
2023-02-05T14:36:09.872Z,5.72
2023-02-05T14:38:39.295Z,4.03
2023-02-05T14:41:08.665Z,5.03
2023-02-05T14:43:37.190Z,4.80
2023-02-05T14:46:08.035Z,5.44
2023-02-05T14:48:39.294Z,4.91
2023-02-05T14:51:28.454Z,5.14
2023-02-05T14:54:04.719Z,5.86
2023-02-05T14:56:39.920Z,5.35
2023-02-05T14:59:18.634Z,5.22
2023-02-05T15:01:51.151Z,5.23
2023-02-05T15:04:23.230Z,6.24
2023-02-05T15:06:51.468Z,6.70
2023-02-05T15:09:21.028Z,6.75
2023-02-05T15:11:54.782Z,6.40
2023-02-05T15:14:31.018Z,6.81
2023-02-05T15:17:18.870Z,6.97
2023-02-05T15:19:48.667Z,5.67
2023-02-05T15:22:19.833Z,6.13
2023-02-05T15:24:48.863Z,5.21
2023-02-05T15:27:19.002Z,5.95
2023-02-05T15:29:51.405Z,5.29
2023-02-05T15:32:20.925Z,6.11
2023-02-05T15:34:54.425Z,6.39
2023-02-05T15:37:27.920Z,6.31
2023-02-05T15:39:56.229Z,6.52
2023-02-05T15:42:39.700Z,6.63
2023-02-05T15:45:18.103Z,6.92
2023-02-05T15:47:47.580Z,7.15
2023-02-05T15:50:15.358Z,7.12
2023-02-05T15:52:43.168Z,7.05
2023-02-05T15:55:12.796Z,6.82
2023-02-05T15:57:40.915Z,7.46
2023-02-05T16:00:09.667Z,7.78
2023-02-05T16:02:41.475Z,7.42
2023-02-05T16:05:17.534Z,7.66
2023-02-05T16:07:48.077Z,7.72
2023-02-05T16:10:20.081Z,7.88
2023-02-05T16:13:05.173Z,7.43
2023-02-05T16:15:33.225Z,7.42
2023-02-05T16:18:01.406Z,7.29
2023-02-05T16:20:34.369Z,7.63
2023-02-05T16:23:05.841Z,7.86
2023-02-05T16:25:47.396Z,7.89
2023-02-05T16:28:22.533Z,7.60
2023-02-05T16:30:51.204Z,7.88
2023-02-05T16:33:38.304Z,7.98
2023-02-05T16:36:07.204Z,7.59
2023-02-05T16:38:35.971Z,7.98
2023-02-05T16:41:39.249Z,7.87
2023-02-05T16:44:08.199Z,7.73
2023-02-05T16:46:36.733Z,7.80
2023-02-05T16:49:23.485Z,7.90
2023-02-05T16:51:54.975Z,7.83
2023-02-05T16:54:32.577Z,7.75
2023-02-05T16:57:14.540Z,7.81
2023-02-05T16:59:45.081Z,7.92
2023-02-05T17:02:21.733Z,7.79
2023-02-05T17:04:52.849Z,7.76
2023-02-05T17:07:21.715Z,7.78
2023-02-05T17:09:50.426Z,7.48
2023-02-05T17:12:38.806Z,7.63
2023-02-05T17:15:13.587Z,7.52
2023-02-05T17:17:47.090Z,7.95
2023-02-05T17:20:15.586Z,7.70
2023-02-05T17:23:04.057Z,7.65
2023-02-05T17:25:35.418Z,7.54
2023-02-05T17:28:04.312Z,7.53
2023-02-05T17:30:33.407Z,7.22
2023-02-05T17:33:02.063Z,7.11
2023-02-05T17:35:30.668Z,7.10
2023-02-05T17:37:59.693Z,7.10
2023-02-05T17:40:28.178Z,7.22
2023-02-05T17:42:56.502Z,7.07
2023-02-05T17:45:27.449Z,7.18
2023-02-05T17:47:55.714Z,6.81
2023-02-05T17:50:24.640Z,6.84
2023-02-05T17:52:52.763Z,6.87
2023-02-05T17:55:22.014Z,6.77
2023-02-05T17:58:00.318Z,6.80
2023-02-05T18:00:32.089Z,6.52
2023-02-05T18:03:00.775Z,6.61
2023-02-05T18:05:28.524Z,6.74
2023-02-05T18:08:00.251Z,6.74
2023-02-05T18:10:31.046Z,6.83
2023-02-05T18:13:01.860Z,6.33
2023-02-05T18:15:29.859Z,6.48
2023-02-05T18:17:59.754Z,6.69
2023-02-05T18:20:28.096Z,6.57
2023-02-05T18:22:56.234Z,6.82
2023-02-05T18:25:24.329Z,6.71
2023-02-05T18:27:56.854Z,6.76
2023-02-05T18:30:24.987Z,5.56
2023-02-05T18:32:53.650Z,6.18
2023-02-05T18:35:21.882Z,6.47
2023-02-05T18:37:53.153Z,6.14
2023-02-05T18:40:20.947Z,6.36
2023-02-05T18:42:49.629Z,6.14
2023-02-05T18:45:18.170Z,6.07
2023-02-05T18:47:46.057Z,6.05
2023-02-05T18:50:15.197Z,6.04
2023-02-05T18:52:44.805Z,6.24
2023-02-05T18:55:13.887Z,6.22
2023-02-05T18:57:43.055Z,6.15
2023-02-05T19:00:16.095Z,6.30
2023-02-05T19:02:44.055Z,6.19
2023-02-05T19:05:12.687Z,6.30
2023-02-05T19:07:40.526Z,6.53
2023-02-05T19:10:08.090Z,6.42
2023-02-05T19:12:38.693Z,6.31
2023-02-05T19:15:09.459Z,6.39
2023-02-05T19:17:39.000Z,6.25
2023-02-05T19:20:07.840Z,6.27
2023-02-05T19:22:36.083Z,6.09
2023-02-05T19:25:04.412Z,5.75
2023-02-05T19:27:33.174Z,6.18
2023-02-05T19:30:01.562Z,6.54
2023-02-05T19:32:29.288Z,6.47
2023-02-05T19:35:00.101Z,6.54
2023-02-05T19:37:29.368Z,6.76
2023-02-05T19:39:57.851Z,6.65
2023-02-05T19:42:27.716Z,6.26
2023-02-05T19:44:57.685Z,6.48
2023-02-05T19:47:28.630Z,6.39
2023-02-05T19:49:58.257Z,6.20
2023-02-05T19:52:26.742Z,6.51
2023-02-05T19:54:54.737Z,6.22
2023-02-05T19:57:22.902Z,6.35
2023-02-05T19:59:52.606Z,6.45
2023-02-05T20:02:21.486Z,6.05
2023-02-05T20:04:50.358Z,6.33
2023-02-05T20:07:18.761Z,6.46
2023-02-05T20:09:47.101Z,6.37
2023-02-05T20:12:15.789Z,6.28
2023-02-05T20:14:44.484Z,6.12
2023-02-05T20:17:16.410Z,6.30
2023-02-05T20:19:44.929Z,6.07
2023-02-05T20:22:12.800Z,6.30
2023-02-05T20:24:40.664Z,6.21
2023-02-05T20:27:09.368Z,5.90
2023-02-05T20:29:56.380Z,5.67
2023-02-05T20:32:24.603Z,5.49
2023-02-05T20:34:54.313Z,5.84
2023-02-05T20:37:22.697Z,6.05
2023-02-05T20:39:51.227Z,6.14
2023-02-05T20:42:19.025Z,6.07
2023-02-05T20:44:47.901Z,6.12
2023-02-05T20:47:17.414Z,6.03
2023-02-05T20:49:46.258Z,6.32
2023-02-05T20:52:17.418Z,5.75
2023-02-05T20:54:46.164Z,5.55
2023-02-05T20:57:14.543Z,5.85
2023-02-05T20:59:43.298Z,5.79
2023-02-05T21:02:14.489Z,5.56
2023-02-05T21:04:42.414Z,5.45
2023-02-05T21:07:15.326Z,5.62
2023-02-05T21:09:44.851Z,5.82
2023-02-05T21:12:13.062Z,5.77
2023-02-05T21:14:40.656Z,5.89
2023-02-05T21:17:10.880Z,5.88
2023-02-05T21:19:40.544Z,5.98
2023-02-05T21:22:08.892Z,5.96
2023-02-05T21:24:37.408Z,5.75
2023-02-05T21:27:05.149Z,5.58
2023-02-05T21:29:32.609Z,5.61
2023-02-05T21:32:00.409Z,5.25
2023-02-05T21:34:28.096Z,5.58
2023-02-05T21:36:56.435Z,5.55
2023-02-05T21:39:25.778Z,5.44
2023-02-05T21:41:54.275Z,5.48
2023-02-05T21:44:22.093Z,5.68
2023-02-05T21:46:49.397Z,5.92
2023-02-05T21:49:16.711Z,5.79
2023-02-05T21:51:44.193Z,5.42
2023-02-05T21:54:11.630Z,5.38
2023-02-05T21:56:40.844Z,5.31
2023-02-05T21:59:08.903Z,5.43
2023-02-05T22:01:36.373Z,5.46
2023-02-05T22:04:20.008Z,5.63
2023-02-05T22:06:47.149Z,5.58
2023-02-05T22:09:15.368Z,5.58
2023-02-05T22:11:46.325Z,5.21
2023-02-05T22:14:15.219Z,5.35
2023-02-05T22:16:42.780Z,5.26
2023-02-05T22:19:09.967Z,5.04
2023-02-05T22:21:41.146Z,4.81
2023-02-05T22:24:10.737Z,4.98
2023-02-05T22:26:38.804Z,5.11
2023-02-05T22:29:06.898Z,5.18
2023-02-05T22:31:34.600Z,5.00
2023-02-05T22:34:01.808Z,4.83
2023-02-05T22:36:30.177Z,4.70
2023-02-05T22:38:57.789Z,4.79
2023-02-05T22:41:25.791Z,4.82
2023-02-05T22:43:56.829Z,5.03
2023-02-05T22:46:25.272Z,5.17
2023-02-05T22:48:52.845Z,5.03
2023-02-05T22:51:31.830Z,4.82
2023-02-05T22:54:00.833Z,4.57
2023-02-05T22:56:28.249Z,4.83
2023-02-05T22:58:55.794Z,4.79
2023-02-05T23:01:24.491Z,4.51
2023-02-05T23:03:52.122Z,4.84
2023-02-05T23:06:20.715Z,4.78
2023-02-05T23:08:55.777Z,4.69
2023-02-05T23:11:23.148Z,4.79
2023-02-05T23:13:50.737Z,4.72
2023-02-05T23:16:19.439Z,4.67
2023-02-05T23:18:46.961Z,4.52
2023-02-05T23:21:18.355Z,4.62
2023-02-05T23:23:45.496Z,4.69
2023-02-05T23:26:14.094Z,4.71
2023-02-05T23:28:41.611Z,4.52
2023-02-05T23:31:08.942Z,4.20
2023-02-05T23:33:36.570Z,4.19
2023-02-05T23:36:04.379Z,4.35
2023-02-05T23:38:31.522Z,4.37
2023-02-05T23:41:01.090Z,4.46
2023-02-05T23:43:28.566Z,4.26
2023-02-05T23:45:55.772Z,3.97
2023-02-05T23:48:23.015Z,3.94
2023-02-05T23:50:51.099Z,3.87
2023-02-05T23:53:21.028Z,3.75
2023-02-05T23:55:48.873Z,3.77
2023-02-05T23:58:17.797Z,3.85
